Time;durP1;ratioP1;P1;durP2;ratioP2;P2;SDS_P1;SDS_P2;PMS_P1;PMS_P2;Temp;Humidity;BMP_temperature;BMP_pressure;BME280_temperature;BME280_humidity;BME280_pressure;Samples;Min_cycle;Max_cycle;Signal;HPM_P1;HPM_P2
2021/10/16 00:00:52;;;;;;;27.67;11.75;;;;;;;18.30;60.12;100622.94;4992237;28;20133;-65
2021/10/16 00:03:19;;;;;;;22.05;11.27;;;;;;;17.92;60.32;100559.41;4989017;28;20070;-67
2021/10/16 00:05:47;;;;;;;30.08;13.57;;;;;;;18.31;60.20;100610.47;4992435;28;20481;-66
2021/10/16 00:08:14;;;;;;;27.55;14.63;;;;;;;18.32;60.40;100598.00;4991977;28;20522;-67
2021/10/16 00:10:41;;;;;;;19.90;11.85;;;;;;;18.34;60.43;100599.31;4988704;28;20486;-63
2021/10/16 00:13:08;;;;;;;25.75;12.55;;;;;;;18.30;60.30;100594.69;4987083;28;20137;-66
2021/10/16 00:15:34;;;;;;;30.58;13.00;;;;;;;18.21;61.06;100584.19;4992157;28;20074;-64
2021/10/16 00:18:02;;;;;;;28.48;12.88;;;;;;;18.12;61.61;100582.50;4983586;28;20054;-66
2021/10/16 00:20:28;;;;;;;24.45;14.45;;;;;;;18.03;61.43;100579.69;4982696;28;20137;-65
2021/10/16 00:22:55;;;;;;;20.38;11.43;;;;;;;18.07;61.65;100579.84;4981389;28;20137;-66
2021/10/16 00:25:22;;;;;;;28.27;13.40;;;;;;;18.05;61.64;100583.03;4992751;28;20145;-66
2021/10/16 00:27:49;;;;;;;29.98;13.02;;;;;;;17.89;62.06;100562.06;4988293;28;20077;-66
2021/10/16 00:30:15;;;;;;;33.17;13.18;;;;;;;17.92;62.31;100582.00;4990948;28;20145;-65
2021/10/16 00:32:42;;;;;;;32.45;12.60;;;;;;;17.94;62.21;100576.00;4991480;28;20085;-66
2021/10/16 00:35:09;;;;;;;31.52;14.77;;;;;;;17.98;62.29;100589.16;4989858;28;20133;-67
2021/10/16 00:37:36;;;;;;;32.30;13.85;;;;;;;17.87;62.16;100559.53;4991803;28;20042;-62
2021/10/16 00:40:05;;;;;;;26.63;14.05;;;;;;;17.91;61.86;100554.88;4991448;28;20077;-62
2021/10/16 00:42:52;;;;;;;34.67;14.40;;;;;;;17.87;61.71;100558.72;4989874;28;20133;-61
2021/10/16 00:45:20;;;;;;;26.50;12.63;;;;;;;18.06;61.58;100562.06;4979983;28;20137;-66
2021/10/16 00:47:48;;;;;;;37.22;14.38;;;;;;;18.10;61.55;100563.06;4986739;28;20149;-66
2021/10/16 00:50:18;;;;;;;28.35;12.77;;;;;;;18.14;61.50;100564.06;4991443;28;20100;-67
2021/10/16 00:52:46;;;;;;;29.70;14.20;;;;;;;18.10;61.45;100563.06;4991530;28;20070;-64
2021/10/16 00:55:16;;;;;;;22.83;12.45;;;;;;;18.07;61.20;100555.25;4986385;28;20138;-63
2021/10/16 00:57:44;;;;;;;23.27;13.52;;;;;;;18.08;61.18;100556.91;4990698;28;20077;-61
2021/10/16 01:00:12;;;;;;;28.25;14.70;;;;;;;17.91;61.05;100514.50;4989479;28;20042;-59
2021/10/16 01:02:40;;;;;;;31.23;13.45;;;;;;;18.12;60.91;100565.53;4989111;28;20216;-59
2021/10/16 01:05:08;;;;;;;24.52;12.68;;;;;;;18.12;61.82;100572.06;4992053;28;20043;-59
2021/10/16 01:07:37;;;;;;;29.67;14.50;;;;;;;18.13;61.34;100558.75;4991709;28;20112;-56
2021/10/16 01:10:06;;;;;;;23.37;13.13;;;;;;;18.21;60.80;100572.88;4988691;28;20101;-58
2021/10/16 01:12:34;;;;;;;29.17;13.77;;;;;;;18.25;60.87;100573.03;4987086;28;20366;-58
2021/10/16 01:15:05;;;;;;;32.45;13.73;;;;;;;18.28;60.97;100575.22;4989561;28;20494;-58
2021/10/16 01:17:34;;;;;;;25.30;13.95;;;;;;;17.93;60.68;100512.19;4989907;28;20574;-58
2021/10/16 01:20:10;;;;;;;33.25;13.50;;;;;;;18.29;60.70;100565.59;4990863;28;20050;-57
2021/10/16 01:22:39;;;;;;;29.75;14.73;;;;;;;18.21;60.91;100541.78;4993238;28;20128;-57
2021/10/16 01:25:13;;;;;;;29.40;14.70;;;;;;;18.26;60.56;100545.63;4992543;28;20061;-57
2021/10/16 01:27:41;;;;;;;29.88;12.75;;;;;;;18.33;60.76;100554.44;4975583;28;20061;-57
2021/10/16 01:30:11;;;;;;;27.00;12.18;;;;;;;18.27;60.69;100544.47;4993360;28;20070;-57
2021/10/16 01:32:39;;;;;;;28.35;12.68;;;;;;;18.19;60.87;100538.47;4992807;28;20130;-59
2021/10/16 01:35:08;;;;;;;20.67;11.60;;;;;;;18.16;61.12;100539.13;4993178;28;20077;-56
2021/10/16 01:37:39;;;;;;;25.40;11.45;;;;;;;17.99;61.27;100533.47;4992362;28;20137;-57
2021/10/16 01:40:08;;;;;;;28.50;12.23;;;;;;;18.00;61.63;100535.97;4993756;28;20168;-54
2021/10/16 01:42:36;;;;;;;25.08;13.23;;;;;;;17.95;61.30;100533.31;4992758;28;20133;-56
2021/10/16 01:45:04;;;;;;;28.00;14.90;;;;;;;17.92;61.26;100530.31;4991875;28;20512;-56
2021/10/16 01:47:30;;;;;;;31.85;12.40;;;;;;;17.73;61.50;100520.09;4990168;28;20135;-55
2021/10/16 01:49:57;;;;;;;28.45;13.68;;;;;;;17.82;61.57;100527.81;4991049;28;20478;-57
2021/10/16 01:52:24;;;;;;;25.05;12.10;;;;;;;17.74;61.75;100533.09;4988678;28;20129;-55
2021/10/16 01:54:51;;;;;;;26.67;12.63;;;;;;;17.81;61.59;100537.41;4992063;28;20062;-56
2021/10/16 01:57:18;;;;;;;28.50;12.65;;;;;;;17.82;61.97;100539.94;4982943;28;20395;-57
2021/10/16 01:59:45;;;;;;;30.57;13.30;;;;;;;17.86;61.41;100535.28;4989500;28;20070;-56
2021/10/16 02:02:11;;;;;;;25.57;11.13;;;;;;;17.74;61.74;100518.97;4991415;28;20142;-56
2021/10/16 02:04:38;;;;;;;36.42;14.68;;;;;;;17.83;61.62;100532.28;4986934;28;20100;-59
2021/10/16 02:07:05;;;;;;;28.38;13.25;;;;;;;17.84;61.33;100519.81;4991317;28;20081;-58
2021/10/16 02:09:32;;;;;;;26.52;13.43;;;;;;;17.82;61.65;100522.16;4993896;28;20138;-57
2021/10/16 02:11:59;;;;;;;28.13;12.60;;;;;;;17.83;61.73;100524.63;4993201;28;20070;-56
2021/10/16 02:14:26;;;;;;;28.40;13.53;;;;;;;17.79;61.64;100508.69;4989373;28;20050;-62
2021/10/16 02:16:53;;;;;;;30.80;14.98;;;;;;;17.66;61.73;100490.69;4994381;28;20104;-61
2021/10/16 02:19:20;;;;;;;35.22;16.10;;;;;;;17.67;61.81;100504.47;4991182;28;20046;-59
2021/10/16 02:21:47;;;;;;;25.73;14.27;;;;;;;17.72;61.95;100512.81;4992739;28;20081;-62
2021/10/16 02:24:14;;;;;;;33.28;13.30;;;;;;;17.69;62.49;100507.81;4993475;28;20184;-61
2021/10/16 02:26:41;;;;;;;28.10;14.38;;;;;;;17.57;62.47;100487.84;4993324;28;20133;-62
2021/10/16 02:29:08;;;;;;;31.80;14.93;;;;;;;17.65;62.34;100501.16;4991554;28;20149;-60
2021/10/16 02:31:35;;;;;;;26.92;14.07;;;;;;;17.59;61.99;100494.00;4988745;28;20133;-62
2021/10/16 02:34:02;;;;;;;29.05;15.38;;;;;;;17.68;62.03;100500.50;4993605;28;20074;-61
2021/10/16 02:36:29;;;;;;;30.42;15.07;;;;;;;17.77;61.47;100504.19;4992421;28;20129;-61
2021/10/16 02:38:56;;;;;;;29.52;14.55;;;;;;;17.79;61.50;100503.88;4988018;28;20057;-62
2021/10/16 02:41:22;;;;;;;27.77;14.07;;;;;;;17.77;61.63;100509.00;4991367;28;20439;-62
2021/10/16 02:43:49;;;;;;;27.35;14.63;;;;;;;17.65;61.66;100489.88;4991442;28;20096;-59
2021/10/16 02:46:16;;;;;;;30.73;13.30;;;;;;;17.56;61.46;100474.88;4992863;28;20073;-62
2021/10/16 02:48:43;;;;;;;33.07;14.33;;;;;;;17.70;61.50;100489.69;4993616;28;20050;-62
2021/10/16 02:51:10;;;;;;;32.83;13.00;;;;;;;17.59;61.85;100479.88;4990548;28;20129;-61
2021/10/16 02:53:37;;;;;;;25.43;14.00;;;;;;;17.63;61.83;100497.81;4993720;28;20076;-61
2021/10/16 02:56:04;;;;;;;24.88;11.95;;;;;;;17.55;62.16;100484.53;4991895;28;20426;-61
2021/10/16 02:58:30;;;;;;;23.25;12.25;;;;;;;17.47;61.86;100488.16;4991193;28;20070;-60
2021/10/16 03:00:57;;;;;;;24.50;12.00;;;;;;;17.49;62.18;100491.50;4989524;28;20085;-60
2021/10/16 03:03:24;;;;;;;27.75;11.90;;;;;;;17.48;61.73;100478.53;4993033;28;20148;-59
2021/10/16 03:05:51;;;;;;;22.00;11.65;;;;;;;17.42;62.30;100479.84;4993762;28;20470;-59
2021/10/16 03:08:18;;;;;;;32.15;14.45;;;;;;;17.32;62.22;100478.16;4991034;28;20088;-59
2021/10/16 03:10:45;;;;;;;24.57;11.87;;;;;;;17.22;62.92;100470.81;4992545;28;20046;-59
2021/10/16 03:13:12;;;;;;;26.67;12.67;;;;;;;17.16;63.26;100472.16;4992092;28;20112;-59
2021/10/16 03:15:39;;;;;;;29.58;10.93;;;;;;;17.13;62.66;100466.31;4991732;28;20038;-59
2021/10/16 03:18:06;;;;;;;24.52;13.05;;;;;;;16.86;62.85;100427.91;4984018;28;20061;-58
2021/10/16 03:20:33;;;;;;;28.10;12.83;;;;;;;17.11;62.92;100469.47;4992762;28;20125;-59
2021/10/16 03:23:00;;;;;;;20.60;11.73;;;;;;;17.05;63.42;100465.13;4988878;28;20137;-59
2021/10/16 03:25:27;;;;;;;24.50;12.23;;;;;;;16.86;63.91;100447.66;4984562;28;20133;-59
2021/10/16 03:27:53;;;;;;;25.23;12.17;;;;;;;16.93;63.92;100462.94;4991065;28;20467;-59
2021/10/16 03:30:20;;;;;;;23.00;12.20;;;;;;;16.98;63.72;100470.41;4991699;28;20398;-59
2021/10/16 03:32:47;;;;;;;26.20;12.73;;;;;;;16.95;63.71;100465.41;4989873;28;20577;-59
2021/10/16 03:35:14;;;;;;;25.80;12.57;;;;;;;16.92;63.61;100468.88;4990492;28;20078;-58
2021/10/16 03:37:41;;;;;;;22.57;11.60;;;;;;;16.76;64.07;100451.56;4987431;28;20133;-58
2021/10/16 03:40:08;;;;;;;22.07;11.37;;;;;;;16.77;64.27;100470.97;4988527;28;20137;-58
2021/10/16 03:42:35;;;;;;;27.67;12.07;;;;;;;16.56;64.23;100453.75;4988485;28;20274;-59
2021/10/16 03:45:03;;;;;;;24.33;12.23;;;;;;;16.71;64.15;100462.94;4991165;28;20054;-61
2021/10/16 03:47:29;;;;;;;28.63;13.33;;;;;;;16.77;63.89;100468.16;4990942;28;20089;-61
2021/10/16 03:49:56;;;;;;;25.27;13.27;;;;;;;16.74;64.25;100459.50;4991484;28;20129;-62
2021/10/16 03:52:23;;;;;;;21.80;12.87;;;;;;;16.74;64.27;100465.13;4984532;28;20153;-61
2021/10/16 03:54:50;;;;;;;27.77;13.27;;;;;;;16.66;64.14;100449.00;4991146;28;20093;-63
2021/10/16 03:57:16;;;;;;;28.30;13.23;;;;;;;16.67;64.10;100445.03;4989988;28;20125;-62
2021/10/16 03:59:44;;;;;;;25.23;12.97;;;;;;;16.87;63.66;100463.41;4987769;28;20499;-64
2021/10/16 04:02:11;;;;;;;30.33;12.73;;;;;;;16.83;63.57;100440.66;4990420;28;20042;-63
2021/10/16 04:04:38;;;;;;;25.93;12.57;;;;;;;16.99;63.35;100466.41;4992047;28;20077;-64
2021/10/16 04:07:04;;;;;;;24.37;11.80;;;;;;;17.02;63.37;100462.94;4990755;28;20149;-63
2021/10/16 04:09:31;;;;;;;27.50;12.43;;;;;;;17.01;63.70;100453.66;4988916;28;20089;-65
2021/10/16 04:11:58;;;;;;;25.13;12.90;;;;;;;16.99;63.66;100452.31;4989499;28;20092;-62
2021/10/16 04:14:25;;;;;;;23.35;12.15;;;;;;;16.89;63.82;100427.22;4988395;28;20133;-62
2021/10/16 04:16:52;;;;;;;23.20;12.23;;;;;;;16.97;63.68;100451.81;4990840;28;20552;-65
2021/10/16 04:19:19;;;;;;;28.57;14.20;;;;;;;17.01;63.53;100448.00;4989834;28;20074;-61
2021/10/16 04:21:46;;;;;;;26.23;12.70;;;;;;;17.16;63.12;100458.03;4988279;28;20077;-63
2021/10/16 04:24:13;;;;;;;23.03;12.70;;;;;;;17.05;62.79;100434.91;4991490;28;20125;-63
2021/10/16 04:26:40;;;;;;;28.27;12.47;;;;;;;17.20;62.98;100459.03;4985552;28;20134;-60
2021/10/16 04:29:07;;;;;;;31.67;12.98;;;;;;;17.27;62.55;100467.88;4989783;28;20497;-59
2021/10/16 04:31:34;;;;;;;29.40;12.47;;;;;;;17.17;62.38;100439.13;4988955;28;20078;-60
2021/10/16 04:34:02;;;;;;;28.85;12.90;;;;;;;17.29;62.66;100456.22;4991518;28;20391;-63
2021/10/16 04:36:30;;;;;;;28.73;13.68;;;;;;;17.17;62.83;100445.59;4989019;28;20124;-60
2021/10/16 04:38:58;;;;;;;19.33;11.37;;;;;;;17.24;62.53;100457.22;4990963;28;20042;-60
2021/10/16 04:41:25;;;;;;;23.52;13.02;;;;;;;17.24;62.74;100462.03;4990316;28;20038;-59
2021/10/16 04:43:52;;;;;;;26.65;12.57;;;;;;;17.20;63.14;100458.22;4989475;28;20085;-59
2021/10/16 04:46:22;;;;;;;22.58;13.23;;;;;;;17.12;63.05;100442.06;4986597;28;20139;-60
2021/10/16 04:48:49;;;;;;;17.90;10.63;;;;;;;17.01;63.17;100431.09;4981966;28;20081;-60
2021/10/16 04:51:16;;;;;;;17.27;9.80;;;;;;;16.81;63.87;100438.16;4992238;28;20129;-59
2021/10/16 04:53:43;;;;;;;22.27;12.40;;;;;;;16.72;63.79;100422.34;4991637;28;20046;-59
2021/10/16 04:56:10;;;;;;;20.90;10.00;;;;;;;16.72;63.72;100425.97;4987628;28;20130;-59
2021/10/16 04:58:37;;;;;;;19.50;11.27;;;;;;;16.86;63.45;100459.75;4990555;28;20050;-59
2021/10/16 05:01:05;;;;;;;27.73;12.83;;;;;;;16.96;63.32;100459.47;4993683;28;20069;-58
2021/10/16 05:03:32;;;;;;;26.48;11.75;;;;;;;17.12;62.96;100464.66;4994560;28;20050;-60
2021/10/16 05:05:59;;;;;;;21.33;12.07;;;;;;;17.23;62.40;100449.06;4992755;28;20137;-59
2021/10/16 05:08:27;;;;;;;21.52;11.27;;;;;;;17.19;62.23;100454.53;4993038;28;20133;-59
2021/10/16 05:10:55;;;;;;;23.05;11.32;;;;;;;17.15;62.13;100453.53;4991673;28;20402;-61
2021/10/16 05:13:21;;;;;;;20.80;10.40;;;;;;;17.19;62.32;100460.19;4988785;28;20043;-61
2021/10/16 05:15:49;;;;;;;23.30;10.50;;;;;;;17.03;62.25;100416.69;4991485;28;20054;-61
2021/10/16 05:18:15;;;;;;;28.63;11.88;;;;;;;17.14;61.79;100426.50;4994312;28;20141;-60
2021/10/16 05:20:42;;;;;;;20.85;10.05;;;;;;;17.08;61.82;100418.50;4989905;28;20066;-61
2021/10/16 05:23:09;;;;;;;22.83;12.93;;;;;;;17.24;61.91;100439.47;4985565;28;20141;-60
2021/10/16 05:25:36;;;;;;;17.73;10.40;;;;;;;17.22;62.07;100450.25;4984602;28;20054;-60
2021/10/16 05:28:03;;;;;;;20.83;11.23;;;;;;;17.25;61.70;100470.16;4989892;28;20133;-61
2021/10/16 05:30:30;;;;;;;25.00;11.87;;;;;;;17.28;61.83;100474.34;4991604;28;20073;-61
2021/10/16 05:32:57;;;;;;;22.53;11.73;;;;;;;17.31;61.44;100468.03;4991408;28;20135;-61
2021/10/16 05:35:23;;;;;;;26.40;12.15;;;;;;;17.49;61.82;100474.53;4994118;28;20078;-62
2021/10/16 05:37:50;;;;;;;28.77;12.80;;;;;;;17.56;61.54;100463.59;4994621;28;20073;-61
2021/10/16 05:40:18;;;;;;;21.35;11.30;;;;;;;17.43;61.13;100448.44;4992917;28;20405;-60
2021/10/16 05:42:45;;;;;;;23.27;11.93;;;;;;;17.48;61.67;100467.25;4990442;28;20098;-61
2021/10/16 05:45:13;;;;;;;23.42;11.73;;;;;;;17.29;61.40;100436.47;4991632;28;20498;-59
2021/10/16 05:47:41;;;;;;;17.60;11.30;;;;;;;17.11;61.80;100413.03;4981052;28;20074;-64
2021/10/16 05:50:10;;;;;;;17.88;10.23;;;;;;;17.09;62.22;100437.09;4991924;28;20049;-62
2021/10/16 05:52:37;;;;;;;21.05;11.38;;;;;;;16.82;62.68;100413.63;4991864;28;20057;-60
2021/10/16 05:55:05;;;;;;;20.40;9.40;;;;;;;16.72;63.04;100411.88;4992931;28;20080;-60
2021/10/16 05:57:33;;;;;;;21.60;9.30;;;;;;;16.50;64.14;100415.59;4993203;28;20153;-50
2021/10/16 06:00:00;;;;;;;19.90;10.83;;;;;;;16.38;64.86;100432.28;4990566;28;20042;-52
2021/10/16 06:02:26;;;;;;;15.27;8.80;;;;;;;16.32;64.64;100431.56;4993733;28;20074;-60
2021/10/16 06:04:53;;;;;;;17.17;9.00;;;;;;;16.12;65.15;100443.38;4992571;28;20557;-63
2021/10/16 06:07:20;;;;;;;18.03;9.97;;;;;;;15.88;65.80;100427.63;4992743;28;20134;-62
2021/10/16 06:09:47;;;;;;;22.37;10.63;;;;;;;15.67;66.14;100420.81;4992086;28;20409;-53
2021/10/16 06:12:14;;;;;;;18.87;10.27;;;;;;;15.78;66.08;100439.13;4994054;28;20486;-58
2021/10/16 06:14:40;;;;;;;22.20;11.20;;;;;;;15.86;65.64;100457.25;4992346;28;20066;-60
2021/10/16 06:17:08;;;;;;;19.63;9.40;;;;;;;15.93;65.05;100468.06;4992989;28;20442;-60
2021/10/16 06:19:35;;;;;;;20.43;10.77;;;;;;;15.92;65.04;100469.22;4992431;28;20076;-61
2021/10/16 06:22:02;;;;;;;22.67;11.57;;;;;;;15.77;64.86;100426.22;4993957;28;20073;-65
2021/10/16 06:24:29;;;;;;;17.00;10.47;;;;;;;16.06;64.67;100472.81;4991844;28;20160;-68
2021/10/16 06:26:56;;;;;;;19.90;11.50;;;;;;;16.07;64.93;100477.31;4993230;28;20499;-66
2021/10/16 06:29:23;;;;;;;18.47;10.57;;;;;;;16.03;64.60;100473.44;4991208;28;20048;-63
2021/10/16 06:31:49;;;;;;;20.80;10.37;;;;;;;15.76;65.43;100449.88;4990470;28;20173;-60
2021/10/16 06:34:16;;;;;;;17.10;10.53;;;;;;;15.87;65.66;100467.38;4990560;28;20134;-62
2021/10/16 06:36:43;;;;;;;17.03;8.80;;;;;;;15.82;66.03;100467.47;4992906;28;20050;-62
2021/10/16 06:39:10;;;;;;;25.70;11.07;;;;;;;15.79;66.09;100460.50;4993346;28;20138;-63
2021/10/16 06:41:37;;;;;;;22.37;8.73;;;;;;;15.52;66.33;100418.31;4993880;28;20046;-61
2021/10/16 06:44:04;;;;;;;21.90;10.10;;;;;;;15.57;67.11;100441.56;4989346;28;20445;-61
2021/10/16 06:46:31;;;;;;;20.67;11.53;;;;;;;15.69;67.13;100457.09;4993016;28;20129;-61
2021/10/16 06:48:57;;;;;;;19.23;9.03;;;;;;;15.70;66.94;100459.59;4992125;28;20141;-65
2021/10/16 06:51:24;;;;;;;18.67;11.53;;;;;;;15.47;67.20;100427.72;4993089;28;20493;-65
2021/10/16 06:53:51;;;;;;;18.63;10.70;;;;;;;15.66;67.09;100458.56;4991206;28;20570;-64
2021/10/16 06:56:18;;;;;;;17.53;10.13;;;;;;;15.70;67.06;100447.50;4989937;28;20133;-63
2021/10/16 06:58:45;;;;;;;17.07;9.73;;;;;;;15.74;66.60;100449.38;4987596;28;20137;-64
2021/10/16 07:01:12;;;;;;;20.57;9.80;;;;;;;15.56;66.85;100425.00;4990971;28;20069;-64
2021/10/16 07:03:39;;;;;;;22.80;11.23;;;;;;;15.62;66.99;100451.84;4991524;28;20133;-65
2021/10/16 07:06:09;;;;;;;23.60;13.07;;;;;;;15.80;66.59;100458.53;4993595;28;20081;-65
2021/10/16 07:08:36;;;;;;;24.95;11.43;;;;;;;16.04;65.98;100481.59;4986076;28;20454;-65
2021/10/16 07:11:03;;;;;;;26.03;12.20;;;;;;;16.17;65.99;100496.78;4991622;28;20108;-65
2021/10/16 07:13:30;;;;;;;27.13;12.60;;;;;;;16.19;65.82;100494.47;4985288;28;20082;-65
2021/10/16 07:15:58;;;;;;;23.93;12.87;;;;;;;16.31;65.18;100506.00;4987584;28;20667;-65
2021/10/16 07:18:25;;;;;;;28.00;13.67;;;;;;;16.38;65.11;100501.91;4991178;28;20425;-64
2021/10/16 07:20:52;;;;;;;25.37;13.37;;;;;;;16.66;64.72;100514.69;4991864;28;20459;-64
2021/10/16 07:23:39;;;;;;;27.37;12.53;;;;;;;16.74;64.35;100505.47;4989001;28;20553;-65
2021/10/16 07:26:08;;;;;;;35.00;12.33;;;;;;;16.95;64.16;100530.28;4988726;28;20407;-64
2021/10/16 07:28:34;;;;;;;20.67;12.37;;;;;;;17.05;63.94;100535.66;4987674;28;20133;-64
2021/10/16 07:31:01;;;;;;;22.87;12.03;;;;;;;17.02;63.65;100528.66;4989720;28;20125;-64
2021/10/16 07:33:28;;;;;;;24.53;11.90;;;;;;;17.10;63.54;100523.41;4988201;28;20150;-64
2021/10/16 07:35:55;;;;;;;27.77;12.13;;;;;;;17.23;63.06;100534.59;4979807;28;20138;-64
2021/10/16 07:38:22;;;;;;;18.30;10.90;;;;;;;17.27;63.21;100541.25;4987159;28;20133;-64
2021/10/16 07:40:49;;;;;;;20.40;10.77;;;;;;;17.36;63.09;100534.78;4987801;28;20379;-65
2021/10/16 07:43:15;;;;;;;27.27;12.20;;;;;;;17.26;62.85;100522.66;4992033;28;20146;-64
2021/10/16 07:45:42;;;;;;;24.13;10.85;;;;;;;17.36;62.79;100532.78;4986152;28;20053;-64
2021/10/16 07:48:13;;;;;;;22.63;10.35;;;;;;;16.94;62.78;100463.75;4992021;28;20454;-64
2021/10/16 07:50:40;;;;;;;22.88;11.23;;;;;;;17.58;62.48;100543.16;4991211;28;20133;-64
2021/10/16 07:53:07;;;;;;;19.45;9.40;;;;;;;17.66;62.28;100547.16;4988140;28;20104;-64
2021/10/16 07:55:33;;;;;;;25.40;9.35;;;;;;;17.72;62.06;100543.88;4992581;28;20134;-65
2021/10/16 07:58:00;;;;;;;21.00;10.50;;;;;;;17.73;61.94;100556.81;4990469;28;20133;-65
2021/10/16 08:00:27;;;;;;;18.10;9.60;;;;;;;17.73;62.26;100548.34;4990411;28;20115;-65
2021/10/16 08:02:54;;;;;;;15.82;9.95;;;;;;;17.72;62.04;100541.03;4990845;28;20061;-65
2021/10/16 08:05:21;;;;;;;23.65;10.98;;;;;;;17.87;61.58;100556.72;4990594;28;20129;-64
2021/10/16 08:07:49;;;;;;;31.13;11.95;;;;;;;17.70;61.50;100520.75;4991632;28;20078;-64
2021/10/16 08:10:15;;;;;;;16.83;10.82;;;;;;;18.01;61.70;100550.91;4990498;28;20133;-64
2021/10/16 08:12:42;;;;;;;17.95;10.27;;;;;;;17.98;61.27;100535.47;4982402;28;20535;-64
2021/10/16 08:15:10;;;;;;;24.58;10.77;;;;;;;18.06;61.41;100550.78;4990826;28;20121;-62
2021/10/16 08:17:37;;;;;;;19.23;10.68;;;;;;;18.08;61.76;100544.78;4991640;28;20142;-62
2021/10/16 08:20:05;;;;;;;31.27;12.77;;;;;;;17.96;61.51;100542.63;4990947;28;20129;-62
2021/10/16 08:22:32;;;;;;;20.20;10.52;;;;;;;17.85;61.43;100544.09;4988543;28;20046;-63
2021/10/16 08:24:59;;;;;;;25.55;11.80;;;;;;;17.73;62.04;100542.69;4991073;28;20046;-64
2021/10/16 08:27:26;;;;;;;18.67;9.90;;;;;;;17.83;61.64;100552.06;4989564;28;20054;-64
2021/10/16 08:29:52;;;;;;;24.15;11.18;;;;;;;17.72;61.75;100535.41;4990073;28;20142;-65
2021/10/16 08:32:20;;;;;;;22.05;9.93;;;;;;;17.75;61.90;100540.38;4985374;28;20073;-64
2021/10/16 08:34:47;;;;;;;20.88;11.00;;;;;;;17.74;61.93;100538.72;4989147;28;20475;-64
2021/10/16 08:37:14;;;;;;;20.00;11.20;;;;;;;17.97;61.48;100555.56;4989780;28;20125;-64
2021/10/16 08:39:41;;;;;;;21.65;11.90;;;;;;;18.10;61.46;100557.41;4991964;28;20125;-64
2021/10/16 08:42:09;;;;;;;19.52;11.15;;;;;;;18.03;61.37;100551.44;4982940;28;20145;-66
2021/10/16 08:44:36;;;;;;;22.63;12.18;;;;;;;18.06;61.14;100562.06;4989495;28;20125;-66
2021/10/16 08:47:03;;;;;;;23.40;12.40;;;;;;;18.08;61.28;100553.25;4988824;28;20138;-66
2021/10/16 08:49:31;;;;;;;23.35;13.32;;;;;;;18.20;61.15;100562.75;4990185;28;20050;-65
2021/10/16 08:51:58;;;;;;;21.63;12.20;;;;;;;18.19;60.84;100565.91;4989966;28;20133;-66
2021/10/16 08:54:25;;;;;;;25.17;14.30;;;;;;;18.20;60.92;100561.91;4991753;28;20090;-66
2021/10/16 08:56:52;;;;;;;30.67;13.73;;;;;;;18.23;60.81;100567.72;4990276;28;20129;-65
2021/10/16 08:59:19;;;;;;;23.63;12.85;;;;;;;18.22;61.04;100557.59;4991473;28;20461;-66
2021/10/16 09:02:03;;;;;;;27.00;13.48;;;;;;;18.26;61.39;100559.75;4982882;28;20081;-65
2021/10/16 09:04:32;;;;;;;23.65;13.27;;;;;;;18.14;61.76;100558.41;4982158;28;20140;-65
2021/10/16 09:06:59;;;;;;;27.98;13.80;;;;;;;18.24;61.23;100560.91;4991618;28;20077;-65
2021/10/16 09:09:28;;;;;;;23.90;12.98;;;;;;;18.37;61.23;100578.06;4988244;28;20061;-66
2021/10/16 09:11:56;;;;;;;19.40;11.55;;;;;;;18.48;61.49;100585.03;4985999;28;20162;-65
2021/10/16 09:14:27;;;;;;;25.30;14.48;;;;;;;18.49;61.30;100581.03;4984104;28;20046;-66
2021/10/16 09:17:02;;;;;;;27.50;14.07;;;;;;;18.49;61.73;100564.06;4981715;28;20100;-65
2021/10/16 09:19:31;;;;;;;26.83;14.70;;;;;;;18.22;61.72;100535.00;4975425;28;20438;-64
2021/10/16 09:22:04;;;;;;;30.20;13.07;;;;;;;18.43;62.27;100577.56;4984781;28;20139;-62
2021/10/16 09:24:32;;;;;;;27.52;13.75;;;;;;;18.49;61.88;100586.69;4989395;28;20080;-62
2021/10/16 09:27:02;;;;;;;27.08;14.02;;;;;;;18.36;62.09;100551.78;4985076;28;20073;-62
2021/10/16 09:29:34;;;;;;;26.42;13.48;;;;;;;18.50;61.98;100571.41;4985784;28;20054;-62
2021/10/16 09:32:11;;;;;;;24.48;14.35;;;;;;;18.60;62.30;100573.88;4984233;28;20073;-62
2021/10/16 09:34:40;;;;;;;29.08;13.98;;;;;;;18.56;62.11;100570.03;4986089;28;20142;-62
2021/10/16 09:37:16;;;;;;;25.88;15.85;;;;;;;18.59;62.43;100575.03;4987616;28;20140;-62
2021/10/16 09:39:49;;;;;;;23.77;12.68;;;;;;;18.69;62.28;100571.84;4988980;28;20073;-62
2021/10/16 09:42:40;;;;;;;22.30;13.70;;;;;;;18.70;62.26;100573.53;4991869;28;20090;-63
2021/10/16 09:45:10;;;;;;;26.48;14.93;;;;;;;18.81;62.11;100588.19;4987630;28;20089;-63
2021/10/16 09:47:37;;;;;;;32.53;13.52;;;;;;;18.86;62.17;100595.66;4992098;28;20133;-65
2021/10/16 09:50:07;;;;;;;27.98;14.30;;;;;;;18.97;61.75;100584.81;4992719;28;20590;-64
2021/10/16 09:52:39;;;;;;;24.15;12.75;;;;;;;19.00;61.89;100587.81;4995081;28;20074;-64
2021/10/16 09:55:08;;;;;;;26.83;15.57;;;;;;;18.89;62.00;100559.03;4986805;28;20081;-63
2021/10/16 09:57:39;;;;;;;21.87;14.03;;;;;;;19.18;61.42;100589.44;5006045;28;20076;-62
2021/10/16 10:00:07;;;;;;;32.67;13.80;;;;;;;19.30;61.71;100596.41;4991903;28;20125;-62
2021/10/16 10:02:34;;;;;;;29.48;14.85;;;;;;;19.17;61.47;100575.59;4991669;28;20066;-63
2021/10/16 10:05:04;;;;;;;30.67;13.80;;;;;;;19.28;61.80;100599.56;4990156;28;20133;-63
2021/10/16 10:07:33;;;;;;;21.65;14.68;;;;;;;19.34;61.79;100608.69;4990048;28;20085;-64
2021/10/16 10:10:00;;;;;;;31.35;14.63;;;;;;;19.47;61.73;100607.66;4993868;28;20078;-64
2021/10/16 10:12:27;;;;;;;25.33;14.43;;;;;;;19.54;61.59;100596.63;4993028;28;20129;-64
2021/10/16 10:14:55;;;;;;;27.67;14.88;;;;;;;19.63;61.22;100591.78;4986679;28;20556;-64
2021/10/16 10:17:29;;;;;;;24.05;14.07;;;;;;;19.72;61.37;100582.41;4991779;28;20141;-64
2021/10/16 10:20:08;;;;;;;25.80;14.60;;;;;;;19.84;61.16;100569.16;4992436;28;20073;-64
2021/10/16 10:22:37;;;;;;;29.13;15.55;;;;;;;19.81;61.42;100569.03;4993275;28;20564;-64
2021/10/16 10:25:19;;;;;;;26.88;15.60;;;;;;;19.79;61.25;100574.19;4991916;28;20694;-64
2021/10/16 10:27:46;;;;;;;32.17;14.27;;;;;;;19.67;61.51;100572.09;4991080;28;20050;-63
2021/10/16 10:30:39;;;;;;;28.42;15.40;;;;;;;19.60;61.98;100558.44;4989381;28;20490;-63
2021/10/16 10:33:15;;;;;;;26.60;15.98;;;;;;;19.57;62.00;100553.44;4983296;28;20051;-63
2021/10/16 10:36:09;;;;;;;28.65;14.75;;;;;;;19.67;61.70;100540.13;4985964;28;20145;-63
2021/10/16 10:38:39;;;;;;;30.48;14.80;;;;;;;19.78;61.70;100564.88;4986028;28;20078;-63
2021/10/16 10:41:29;;;;;;;33.40;16.90;;;;;;;19.72;61.64;100566.22;4983865;28;20461;-63
2021/10/16 10:43:56;;;;;;;33.60;16.42;;;;;;;19.86;61.71;100574.47;4988538;28;20288;-63
2021/10/16 10:46:24;;;;;;;35.58;17.27;;;;;;;19.99;61.21;100579.06;4988941;28;20065;-65
2021/10/16 10:48:51;;;;;;;35.97;18.45;;;;;;;20.21;60.81;100599.78;4992445;28;20460;-64
2021/10/16 10:51:28;;;;;;;31.02;17.73;;;;;;;20.35;60.57;100580.50;4991552;28;20421;-64
2021/10/16 10:54:13;;;;;;;33.50;17.40;;;;;;;20.53;60.35;100573.50;4993080;28;20077;-63
2021/10/16 10:56:42;;;;;;;33.80;18.30;;;;;;;20.82;59.86;100581.09;4992253;28;20134;-63
2021/10/16 10:59:11;;;;;;;30.17;16.60;;;;;;;21.07;59.59;100578.31;4988438;28;20152;-63
2021/10/16 11:01:41;;;;;;;28.70;17.80;;;;;;;21.25;59.11;100585.44;4986835;28;20299;-63
2021/10/16 11:04:09;;;;;;;33.75;17.48;;;;;;;21.25;59.01;100564.75;4983486;28;20310;-63
2021/10/16 11:06:36;;;;;;;30.55;16.20;;;;;;;21.49;58.81;100569.66;4992811;28;20258;-62
2021/10/16 11:09:17;;;;;;;30.15;15.93;;;;;;;21.60;58.21;100562.31;4992392;28;20142;-63
2021/10/16 11:11:50;;;;;;;37.38;16.77;;;;;;;21.68;58.39;100571.94;4992255;28;20074;-63
2021/10/16 11:14:17;;;;;;;34.72;16.58;;;;;;;21.77;58.27;100581.13;4993201;28;20077;-63